Wetterdaten: Woche 16.10.17 - 22.10.17 (KW42)
Datum Zeit Temp. A. Pool Temp. Feuchte A. Luftdruck Regen Wind Richtung Sonnenschein ET UV Solar Taupunkt Windchill Windben Empfang
16.10.2017 00:00 10,6 C 11,7 C 96 % 1026,0 hPa 0,0 l/m 2,1 km/h (1 Bft) S-SW 0,00 h 0,000 mm 0,0 UV-I 0 W/m 9,9 C 10,6 C 3,4 km/h (1 Bft) 96,50 %
16.10.2017 01:00 9,7 C 11,7 C 96 % 1026,1 hPa 0,0 l/m 1,3 km/h (1 Bft) S-SW 0,00 h 0,000 mm 0,0 UV-I 0 W/m 9,0 C 9,7 C 2,6 km/h (1 Bft) 98,45 %
16.10.2017 02:00 8,9 C 11,7 C 96 % 1026,5 hPa 0,0 l/m 2,5 km/h (1 Bft) S-SW 0,00 h 0,000 mm 0,0 UV-I 0 W/m 8,3 C 8,9 C 3,6 km/h (1 Bft) 98,14 %
16.10.2017 03:00 8,5 C 11,7 C 96 % 1026,6 hPa 0,0 l/m 1,6 km/h (1 Bft) S 0,00 h 0,000 mm 0,0 UV-I 0 W/m 8,0 C 8,5 C 3,3 km/h (1 Bft) 99,06 %
16.10.2017 04:00 7,9 C 11,7 C 97 % 1026,8 hPa 0,0 l/m 0,0 km/h (0 Bft) N 0,00 h 0,000 mm 0,0 UV-I 0 W/m 7,4 C 7,9 C 0,0 km/h (0 Bft) 96,89 %
16.10.2017 05:00 7,4 C 11,7 C 97 % 1027,0 hPa 0,0 l/m 0,3 km/h (0 Bft) S 0,00 h 0,000 mm 0,0 UV-I 0 W/m 7,0 C 7,4 C 0,8 km/h (0 Bft) 98,61 %
16.10.2017 06:00 7,4 C 11,7 C 97 % 1027,1 hPa 0,0 l/m 0,2 km/h (0 Bft) S 0,00 h 0,000 mm 0,0 UV-I 0 W/m 7,0 C 7,4 C 0,5 km/h (0 Bft) 99,28 %
16.10.2017 07:00 6,8 C 11,7 C 97 % 1027,1 hPa 0,0 l/m 0,3 km/h (0 Bft) S 0,13 h 0,000 mm 0,0 UV-I 15 W/m 6,3 C 6,8 C 0,8 km/h (0 Bft) 95,93 %
16.10.2017 08:00 8,0 C 11,7 C 97 % 1027,3 hPa 0,2 l/m 0,1 km/h (0 Bft) S 1,00 h 0,000 mm 0,0 UV-I 134 W/m 7,6 C 8,0 C 0,1 km/h (0 Bft) 98,57 %
16.10.2017 09:00 10,9 C 11,7 C 96 % 1027,5 hPa 0,0 l/m 1,6 km/h (1 Bft) O-NO 1,00 h 0,051 mm 0,7 UV-I 275 W/m 10,2 C 10,9 C 3,1 km/h (1 Bft) 97,99 %
16.10.2017 10:00 13,1 C 11,7 C 90 % 1027,5 hPa 0,0 l/m 1,7 km/h (1 Bft) O-NO 1,00 h 0,127 mm 1,4 UV-I 419 W/m 11,4 C 13,1 C 3,7 km/h (1 Bft) 98,44 %
16.10.2017 11:00 15,0 C 11,7 C 85 % 1027,4 hPa 0,0 l/m 2,7 km/h (1 Bft) NO 1,00 h 0,203 mm 2,0 UV-I 504 W/m 12,5 C 15,0 C 4,9 km/h (1 Bft) 99,28 %
16.10.2017 12:00 16,9 C 11,7 C 79 % 1027,1 hPa 0,0 l/m 2,2 km/h (1 Bft) O-NO 1,00 h 0,254 mm 2,3 UV-I 542 W/m 13,3 C 16,9 C 5,1 km/h (1 Bft) 98,33 %
16.10.2017 13:00 18,7 C 11,7 C 74 % 1026,5 hPa 0,0 l/m 2,6 km/h (1 Bft) NO 1,00 h 0,279 mm 2,4 UV-I 530 W/m 14,0 C 18,7 C 5,1 km/h (1 Bft) 99,39 %
16.10.2017 14:00 20,0 C 11,7 C 67 % 1026,0 hPa 0,0 l/m 1,2 km/h (1 Bft) NO 1,00 h 0,305 mm 1,8 UV-I 466 W/m 13,7 C 20,0 C 3,1 km/h (1 Bft) 98,27 %
16.10.2017 15:00 20,8 C 11,7 C 64 % 1025,6 hPa 0,0 l/m 1,1 km/h (0 Bft) NO 1,00 h 0,280 mm 1,1 UV-I 349 W/m 13,6 C 20,8 C 2,8 km/h (1 Bft) 99,51 %
16.10.2017 16:00 20,6 C 11,7 C 65 % 1025,4 hPa 0,0 l/m 0,6 km/h (0 Bft) O-NO 1,00 h 0,203 mm 0,6 UV-I 212 W/m 13,7 C 20,6 C 1,8 km/h (1 Bft) 96,22 %
16.10.2017 17:00 18,7 C 11,7 C 75 % 1025,1 hPa 0,0 l/m 1,0 km/h (0 Bft) O 1,00 h 0,127 mm 0,0 UV-I 74 W/m 14,1 C 18,7 C 1,9 km/h (1 Bft) 98,37 %
16.10.2017 18:00 15,0 C 11,7 C 86 % 1025,3 hPa 0,0 l/m 1,0 km/h (0 Bft) O 0,07 h 0,051 mm 0,0 UV-I 9 W/m 12,7 C 15,0 C 1,9 km/h (1 Bft) 98,16 %
16.10.2017 19:00 13,5 C 11,7 C 90 % 1025,4 hPa 0,0 l/m 1,6 km/h (1 Bft) O 0,00 h 0,000 mm 0,0 UV-I 0 W/m 11,9 C 13,5 C 2,4 km/h (1 Bft) 98,72 %
16.10.2017 20:00 12,7 C 11,7 C 91 % 1025,5 hPa 0,0 l/m 2,4 km/h (1 Bft) S-SO 0,00 h 0,000 mm 0,0 UV-I 0 W/m 11,3 C 12,7 C 4,2 km/h (1 Bft) 98,05 %
16.10.2017 21:00 12,1 C 11,7 C 93 % 1025,6 hPa 0,0 l/m 2,9 km/h (1 Bft) S-SO 0,00 h 0,000 mm 0,0 UV-I 0 W/m 10,9 C 12,1 C 4,8 km/h (1 Bft) 96,47 %
16.10.2017 22:00 11,0 C 11,7 C 93 % 1025,7 hPa 0,0 l/m 1,1 km/h (1 Bft) S 0,00 h 0,000 mm 0,0 UV-I 0 W/m 9,9 C 11,0 C 2,2 km/h (1 Bft) 99,57 %
16.10.2017 23:00 10,2 C 11,7 C 93 % 1025,8 hPa 0,0 l/m 1,0 km/h (0 Bft) S 0,00 h 0,000 mm 0,0 UV-I 0 W/m 9,2 C 10,2 C 1,8 km/h (1 Bft) 97,85 %
17.10.2017 00:00 9,0 C 11,7 C 94 % 1025,6 hPa 0,0 l/m 1,1 km/h (1 Bft) S 0,00 h 0,000 mm 0,0 UV-I 0 W/m 8,1 C 9,0 C 1,7 km/h (1 Bft) 97,36 %
17.10.2017 01:00 8,3 C 11,7 C 95 % 1025,6 hPa 0,0 l/m 0,3 km/h (0 Bft) S 0,00 h 0,000 mm 0,0 UV-I 0 W/m 7,5 C 8,3 C 1,0 km/h (0 Bft) 97,62 %
17.10.2017 02:00 7,7 C 11,7 C 95 % 1025,4 hPa 0,0 l/m 0,0 km/h (0 Bft) N 0,00 h 0,000 mm 0,0 UV-I 0 W/m 7,0 C 7,7 C 0,2 km/h (0 Bft) 98,29 %
17.10.2017 03:00 7,3 C 11,7 C 96 % 1025,0 hPa 0,0 l/m 0,7 km/h (0 Bft) S 0,00 h 0,000 mm 0,0 UV-I 0 W/m 6,6 C 7,3 C 1,6 km/h (1 Bft) 98,29 %
17.10.2017 04:00 6,9 C 11,7 C 96 % 1024,8 hPa 0,0 l/m 0,3 km/h (0 Bft) S 0,00 h 0,000 mm 0,0 UV-I 0 W/m 6,3 C 6,9 C 0,7 km/h (0 Bft) 96,67 %
17.10.2017 05:00 6,8 C 11,7 C 96 % 1024,7 hPa 0,0 l/m 0,0 km/h (0 Bft) N 0,00 h 0,000 mm 0,0 UV-I 0 W/m 6,2 C 6,8 C 0,0 km/h (0 Bft) 99,36 %
17.10.2017 06:00 6,6 C 11,7 C 97 % 1024,8 hPa 0,0 l/m 0,0 km/h (0 Bft) N 0,00 h 0,000 mm 0,0 UV-I 0 W/m 6,1 C 6,6 C 0,0 km/h (0 Bft) 98,03 %
17.10.2017 07:00 7,4 C 11,7 C 97 % 1024,9 hPa 0,2 l/m 0,0 km/h (0 Bft) N 0,03 h 0,000 mm 0,0 UV-I 12 W/m 7,0 C 7,4 C 0,0 km/h (0 Bft) 97,02 %
17.10.2017 08:00 8,1 C 11,7 C 97 % 1025,2 hPa 0,0 l/m 0,0 km/h (0 Bft) N 0,37 h 0,000 mm 0,0 UV-I 86 W/m 7,7 C 8,1 C 0,0 km/h (0 Bft) 98,75 %
17.10.2017 09:00 9,6 C 11,7 C 98 % 1025,3 hPa 0,0 l/m 0,0 km/h (0 Bft) N 1,00 h 0,051 mm 0,6 UV-I 244 W/m 9,3 C 9,6 C 0,0 km/h (0 Bft) 98,60 %
17.10.2017 10:00 11,9 C 11,7 C 95 % 1025,1 hPa 0,0 l/m 0,0 km/h (0 Bft) N 1,00 h 0,101 mm 1,3 UV-I 405 W/m 11,1 C 11,9 C 0,0 km/h (0 Bft) 98,30 %
17.10.2017 11:00 14,2 C 11,7 C 88 % 1024,7 hPa 0,0 l/m 0,0 km/h (0 Bft) N 1,00 h 0,204 mm 2,0 UV-I 498 W/m 12,2 C 14,2 C 0,0 km/h (0 Bft) 99,47 %
17.10.2017 12:00 16,0 C 11,7 C 83 % 1024,0 hPa 0,0 l/m 0,0 km/h (0 Bft) N 1,00 h 0,254 mm 2,3 UV-I 516 W/m 13,2 C 16,0 C 0,0 km/h (0 Bft) 98,02 %
17.10.2017 13:00 17,5 C 11,7 C 76 % 1023,1 hPa 0,0 l/m 3,4 km/h (1 Bft) NO 1,00 h 0,279 mm 2,3 UV-I 525 W/m 13,3 C 17,5 C 6,0 km/h (2 Bft) 99,41 %
17.10.2017 14:00 18,4 C 11,7 C 71 % 1021,9 hPa 0,0 l/m 3,8 km/h (1 Bft) O-NO 1,00 h 0,305 mm 1,8 UV-I 458 W/m 13,1 C 18,4 C 6,3 km/h (2 Bft) 98,79 %
17.10.2017 15:00 18,8 C 11,7 C 69 % 1021,1 hPa 0,0 l/m 3,9 km/h (1 Bft) O-NO 1,00 h 0,279 mm 1,1 UV-I 324 W/m 13,0 C 18,8 C 6,1 km/h (2 Bft) 98,96 %
17.10.2017 16:00 18,1 C 11,7 C 75 % 1020,5 hPa 0,0 l/m 3,2 km/h (1 Bft) NO 0,50 h 0,203 mm 0,6 UV-I 156 W/m 13,6 C 18,1 C 5,0 km/h (1 Bft) 96,96 %
17.10.2017 17:00 16,8 C 11,7 C 80 % 1019,9 hPa 0,0 l/m 2,9 km/h (1 Bft) O-NO 0,57 h 0,102 mm 0,0 UV-I 60 W/m 13,4 C 16,8 C 4,5 km/h (1 Bft) 97,99 %
17.10.2017 18:00 14,8 C 11,7 C 86 % 1019,5 hPa 0,0 l/m 1,6 km/h (1 Bft) O 0,03 h 0,051 mm 0,0 UV-I 7 W/m 12,5 C 14,8 C 2,5 km/h (1 Bft) 98,24 %
17.10.2017 19:00 13,3 C 11,7 C 90 % 1019,4 hPa 0,0 l/m 1,3 km/h (1 Bft) O 0,00 h 0,000 mm 0,0 UV-I 0 W/m 11,6 C 13,3 C 2,2 km/h (1 Bft) 99,48 %
17.10.2017 20:00 13,3 C 11,7 C 92 % 1019,2 hPa 0,0 l/m 4,4 km/h (1 Bft) O 0,00 h 0,000 mm 0,0 UV-I 0 W/m 12,0 C 13,1 C 7,2 km/h (2 Bft) 96,56 %
17.10.2017 21:00 13,1 C 11,7 C 92 % 1018,8 hPa 0,0 l/m 2,2 km/h (1 Bft) O-NO 0,00 h 0,000 mm 0,0 UV-I 0 W/m 11,8 C 13,1 C 3,8 km/h (1 Bft) 98,31 %
17.10.2017 22:00 11,6 C 11,7 C 95 % 1018,7 hPa 0,0 l/m 0,6 km/h (0 Bft) O-NO 0,00 h 0,000 mm 0,0 UV-I 0 W/m 10,9 C 11,6 C 1,5 km/h (1 Bft) 97,98 %
17.10.2017 23:00 10,2 C 11,7 C 96 % 1018,4 hPa 0,0 l/m 0,6 km/h (0 Bft) O-NO 0,00 h 0,000 mm 0,0 UV-I 0 W/m 9,6 C 10,2 C 1,7 km/h (1 Bft) 99,47 %
18.10.2017 00:00 9,4 C 11,7 C 96 % 1017,9 hPa 0,0 l/m 0,4 km/h (0 Bft) SO 0,00 h 0,000 mm 0,0 UV-I 0 W/m 8,8 C 9,4 C 1,1 km/h (1 Bft) 96,37 %
18.10.2017 01:00 10,0 C 11,7 C 97 % 1017,5 hPa 0,0 l/m 1,2 km/h (1 Bft) S 0,00 h 0,000 mm 0,0 UV-I 0 W/m 9,6 C 10,0 C 2,6 km/h (1 Bft) 98,58 %
18.10.2017 02:00 10,4 C 11,7 C 97 % 1017,2 hPa 0,0 l/m 1,2 km/h (1 Bft) S 0,00 h 0,000 mm 0,0 UV-I 0 W/m 9,9 C 10,4 C 2,8 km/h (1 Bft) 98,61 %
18.10.2017 03:00 10,7 C 11,7 C 98 % 1016,9 hPa 0,0 l/m 1,2 km/h (1 Bft) S 0,00 h 0,000 mm 0,0 UV-I 0 W/m 10,4 C 10,7 C 2,9 km/h (1 Bft) 98,85 %
18.10.2017 04:00 10,7 C 11,8 C 98 % 1016,9 hPa 0,2 l/m 2,8 km/h (1 Bft) S-SW 0,00 h 0,000 mm 0,0 UV-I 0 W/m 10,4 C 10,7 C 5,2 km/h (1 Bft) 96,33 %
18.10.2017 05:00 10,9 C 11,8 C 98 % 1016,7 hPa 0,0 l/m 2,6 km/h (1 Bft) SW 0,00 h 0,000 mm 0,0 UV-I 0 W/m 10,6 C 10,9 C 4,7 km/h (1 Bft) 98,74 %
18.10.2017 06:00 11,0 C 12,1 C 98 % 1016,5 hPa 0,0 l/m 3,7 km/h (1 Bft) W 0,00 h 0,000 mm 0,0 UV-I 0 W/m 10,7 C 11,0 C 6,1 km/h (2 Bft) 98,67 %
18.10.2017 07:00 10,6 C 12,2 C 98 % 1016,4 hPa 0,0 l/m 2,7 km/h (1 Bft) S-SW 0,00 h 0,000 mm 0,0 UV-I 7 W/m 10,3 C 10,6 C 5,0 km/h (1 Bft) 98,12 %
18.10.2017 08:00 10,4 C 12,2 C 98 % 1016,6 hPa 0,0 l/m 1,3 km/h (1 Bft) S 0,00 h 0,000 mm 0,0 UV-I 29 W/m 10,1 C 10,4 C 3,3 km/h (1 Bft) 96,85 %
18.10.2017 09:00 10,7 C 12,1 C 98 % 1016,7 hPa 0,0 l/m 1,4 km/h (1 Bft) SW 0,00 h 0,025 mm 0,0 UV-I 88 W/m 10,4 C 10,7 C 3,3 km/h (1 Bft) 98,90 %
18.10.2017 10:00 11,2 C 12,2 C 98 % 1016,7 hPa 0,0 l/m 0,5 km/h (0 Bft) W-NW 0,00 h 0,051 mm 0,5 UV-I 107 W/m 10,8 C 11,2 C 1,5 km/h (1 Bft) 98,62 %
18.10.2017 11:00 11,6 C 12,2 C 98 % 1016,5 hPa 0,0 l/m 0,5 km/h (0 Bft) W-NW 0,00 h 0,051 mm 0,8 UV-I 185 W/m 11,3 C 11,6 C 2,1 km/h (1 Bft) 97,82 %
18.10.2017 12:00 12,4 C 12,2 C 97 % 1015,9 hPa 0,0 l/m 1,6 km/h (1 Bft) N-NO 0,10 h 0,076 mm 1,1 UV-I 217 W/m 12,0 C 12,4 C 3,4 km/h (1 Bft) 97,52 %
18.10.2017 13:00 14,1 C 12,2 C 90 % 1015,2 hPa 0,0 l/m 1,5 km/h (1 Bft) N-NO 0,90 h 0,102 mm 1,9 UV-I 420 W/m 12,5 C 14,1 C 3,7 km/h (1 Bft) 98,87 %
18.10.2017 14:00 15,7 C 12,2 C 85 % 1014,6 hPa 0,0 l/m 2,5 km/h (1 Bft) N-NO 0,90 h 0,228 mm 1,6 UV-I 417 W/m 13,1 C 15,7 C 4,7 km/h (1 Bft) 98,62 %
18.10.2017 15:00 16,6 C 12,2 C 81 % 1014,1 hPa 0,0 l/m 2,0 km/h (1 Bft) N-NO 1,00 h 0,229 mm 1,0 UV-I 343 W/m 13,3 C 16,6 C 4,6 km/h (1 Bft) 99,59 %
18.10.2017 16:00 16,4 C 12,2 C 82 % 1013,9 hPa 0,0 l/m 3,0 km/h (1 Bft) N-NO 0,87 h 0,178 mm 0,5 UV-I 172 W/m 13,4 C 16,4 C 5,1 km/h (1 Bft) 98,31 %
18.10.2017 17:00 15,6 C 12,2 C 85 % 1013,8 hPa 0,0 l/m 3,3 km/h (1 Bft) O-SO 1,00 h 0,101 mm 0,0 UV-I 67 W/m 13,1 C 15,6 C 5,4 km/h (1 Bft) 97,33 %
18.10.2017 18:00 12,9 C 12,2 C 92 % 1014,0 hPa 0,0 l/m 0,3 km/h (0 Bft) O-SO 0,00 h 0,051 mm 0,0 UV-I 8 W/m 11,7 C 12,9 C 0,9 km/h (0 Bft) 98,38 %
18.10.2017 19:00 11,2 C 12,2 C 95 % 1014,3 hPa 0,0 l/m 0,7 km/h (0 Bft) O-SO 0,00 h 0,000 mm 0,0 UV-I 0 W/m 10,4 C 11,2 C 1,4 km/h (1 Bft) 98,26 %
18.10.2017 20:00 10,6 C 12,2 C 96 % 1014,5 hPa 0,0 l/m 2,6 km/h (1 Bft) S 0,00 h 0,000 mm 0,0 UV-I 0 W/m 10,0 C 10,6 C 3,9 km/h (1 Bft) 99,03 %
18.10.2017 21:00 9,8 C 12,2 C 96 % 1014,6 hPa 0,0 l/m 0,8 km/h (0 Bft) S 0,00 h 0,000 mm 0,0 UV-I 0 W/m 9,3 C 9,8 C 1,3 km/h (1 Bft) 95,79 %
18.10.2017 22:00 9,1 C 12,2 C 97 % 1014,8 hPa 0,2 l/m 1,4 km/h (1 Bft) S 0,00 h 0,000 mm 0,0 UV-I 0 W/m 8,6 C 9,1 C 2,7 km/h (1 Bft) 99,09 %
18.10.2017 23:00 8,1 C 12,2 C 97 % 1015,0 hPa 0,0 l/m 0,8 km/h (0 Bft) S 0,00 h 0,000 mm 0,0 UV-I 0 W/m 7,7 C 8,1 C 1,7 km/h (1 Bft) 98,88 %
19.10.2017 00:00 7,8 C 12,2 C 97 % 1015,0 hPa 0,0 l/m 1,0 km/h (0 Bft) S 0,00 h 0,000 mm 0,0 UV-I 0 W/m 7,4 C 7,8 C 2,1 km/h (1 Bft) 97,26 %
19.10.2017 01:00 7,2 C 12,2 C 97 % 1015,0 hPa 0,0 l/m 0,4 km/h (0 Bft) S 0,00 h 0,000 mm 0,0 UV-I 0 W/m 6,8 C 7,2 C 1,2 km/h (1 Bft) 98,69 %
19.10.2017 02:00 7,7 C 11,9 C 98 % 1015,3 hPa 0,0 l/m 1,4 km/h (1 Bft) S 0,00 h 0,000 mm 0,0 UV-I 0 W/m 7,4 C 7,7 C 3,0 km/h (1 Bft) 97,77 %
19.10.2017 03:00 8,5 C 11,7 C 98 % 1015,5 hPa 0,0 l/m 0,8 km/h (0 Bft) S-SW 0,00 h 0,000 mm 0,0 UV-I 0 W/m 8,2 C 8,5 C 2,2 km/h (1 Bft) 99,21 %
19.10.2017 04:00 8,8 C 11,7 C 98 % 1015,5 hPa 0,2 l/m 2,2 km/h (1 Bft) S-SW 0,00 h 0,000 mm 0,0 UV-I 0 W/m 8,5 C 8,8 C 3,9 km/h (1 Bft) 96,42 %
19.10.2017 05:00 8,2 C 11,7 C 98 % 1015,7 hPa 0,0 l/m 2,4 km/h (1 Bft) S-SW 0,00 h 0,000 mm 0,0 UV-I 0 W/m 7,9 C 8,2 C 4,3 km/h (1 Bft) 99,80 %
19.10.2017 06:00 7,9 C 11,7 C 98 % 1015,6 hPa 0,0 l/m 1,5 km/h (1 Bft) W 0,00 h 0,000 mm 0,0 UV-I 0 W/m 7,6 C 7,9 C 3,3 km/h (1 Bft) 98,25 %
19.10.2017 07:00 7,6 C 11,7 C 98 % 1015,8 hPa 0,0 l/m 0,8 km/h (0 Bft) SW 0,00 h 0,000 mm 0,0 UV-I 9 W/m 7,3 C 7,6 C 2,2 km/h (1 Bft) 97,54 %
19.10.2017 08:00 7,6 C 11,7 C 98 % 1016,3 hPa 0,0 l/m 0,5 km/h (0 Bft) W-SW 0,00 h 0,000 mm 0,0 UV-I 42 W/m 7,3 C 7,6 C 1,5 km/h (1 Bft) 97,40 %
19.10.2017 09:00 7,7 C 11,7 C 98 % 1016,7 hPa 0,0 l/m 0,9 km/h (0 Bft) O-SO 0,00 h 0,025 mm 0,0 UV-I 95 W/m 7,4 C 7,7 C 2,4 km/h (1 Bft) 99,28 %
19.10.2017 10:00 8,2 C 11,7 C 98 % 1016,9 hPa 0,0 l/m 1,3 km/h (1 Bft) O-NO 0,17 h 0,051 mm 0,6 UV-I 182 W/m 7,9 C 8,2 C 2,9 km/h (1 Bft) 97,34 %
19.10.2017 11:00 8,9 C 11,7 C 98 % 1017,1 hPa 0,0 l/m 1,9 km/h (1 Bft) O-NO 0,27 h 0,076 mm 0,9 UV-I 227 W/m 8,6 C 8,9 C 4,3 km/h (1 Bft) 97,20 %
19.10.2017 12:00 9,7 C 11,7 C 98 % 1016,9 hPa 0,0 l/m 1,7 km/h (1 Bft) NO 0,07 h 0,102 mm 1,0 UV-I 220 W/m 9,4 C 9,7 C 4,2 km/h (1 Bft) 98,07 %
19.10.2017 13:00 10,7 C 11,7 C 97 % 1016,4 hPa 0,0 l/m 3,5 km/h (1 Bft) O 0,50 h 0,102 mm 1,2 UV-I 281 W/m 10,2 C 10,7 C 6,3 km/h (2 Bft) 99,66 %
19.10.2017 14:00 11,6 C 11,7 C 93 % 1015,8 hPa 0,2 l/m 5,0 km/h (1 Bft) O-NO 1,00 h 0,127 mm 1,3 UV-I 395 W/m 10,5 C 11,6 C 8,2 km/h (2 Bft) 97,91 %
19.10.2017 15:00 13,0 C 11,7 C 89 % 1015,3 hPa 0,0 l/m 3,2 km/h (1 Bft) O-NO 1,00 h 0,203 mm 0,9 UV-I 333 W/m 11,2 C 13,0 C 5,5 km/h (1 Bft) 98,99 %
19.10.2017 16:00 13,7 C 12,0 C 87 % 1014,8 hPa 0,0 l/m 3,2 km/h (1 Bft) O-NO 1,00 h 0,178 mm 0,5 UV-I 197 W/m 11,6 C 13,7 C 5,3 km/h (1 Bft) 95,77 %
19.10.2017 17:00 13,2 C 12,2 C 90 % 1014,5 hPa 0,0 l/m 2,7 km/h (1 Bft) O-NO 0,87 h 0,101 mm 0,0 UV-I 61 W/m 11,5 C 13,2 C 4,2 km/h (1 Bft) 98,57 %
19.10.2017 18:00 11,7 C 12,2 C 93 % 1014,6 hPa 0,0 l/m 3,4 km/h (1 Bft) O-NO 0,00 h 0,026 mm 0,0 UV-I 8 W/m 10,7 C 11,7 C 5,0 km/h (1 Bft) 99,49 %
19.10.2017 19:00 10,4 C 12,2 C 95 % 1014,9 hPa 0,0 l/m 3,6 km/h (1 Bft) NO 0,00 h 0,000 mm 0,0 UV-I 0 W/m 9,7 C 10,4 C 4,9 km/h (1 Bft) 97,13 %
19.10.2017 20:00 9,4 C 12,2 C 96 % 1014,9 hPa 0,0 l/m 1,2 km/h (1 Bft) NO 0,00 h 0,000 mm 0,0 UV-I 0 W/m 8,9 C 9,4 C 2,0 km/h (1 Bft) 97,78 %
19.10.2017 21:00 7,3 C 11,9 C 97 % 1015,1 hPa 0,0 l/m 0,5 km/h (0 Bft) NO 0,00 h 0,000 mm 0,0 UV-I 0 W/m 6,9 C 7,3 C 1,2 km/h (1 Bft) 98,04 %
19.10.2017 22:00 7,1 C 11,7 C 97 % 1015,2 hPa 0,0 l/m 0,6 km/h (0 Bft) NO 0,00 h 0,000 mm 0,0 UV-I 0 W/m 6,7 C 7,1 C 1,7 km/h (1 Bft) 99,44 %
19.10.2017 23:00 8,5 C 11,7 C 98 % 1015,2 hPa 0,0 l/m 1,3 km/h (1 Bft) O 0,00 h 0,000 mm 0,0 UV-I 0 W/m 8,2 C 8,5 C 2,5 km/h (1 Bft) 96,26 %
20.10.2017 00:00 7,1 C 11,7 C 98 % 1014,9 hPa 0,0 l/m 0,4 km/h (0 Bft) S-SW 0,00 h 0,000 mm 0,0 UV-I 0 W/m 6,8 C 7,1 C 1,6 km/h (1 Bft) 98,76 %
20.10.2017 01:00 7,6 C 11,7 C 98 % 1014,8 hPa 0,0 l/m 0,5 km/h (0 Bft) O-SO 0,00 h 0,000 mm 0,0 UV-I 0 W/m 7,3 C 7,6 C 1,2 km/h (1 Bft) 98,17 %
20.10.2017 02:00 7,9 C 11,7 C 98 % 1014,8 hPa 0,0 l/m 4,7 km/h (1 Bft) O-NO 0,00 h 0,000 mm 0,0 UV-I 0 W/m 7,6 C 7,6 C 7,8 km/h (2 Bft) 97,42 %
20.10.2017 03:00 7,9 C 11,7 C 98 % 1014,7 hPa 0,2 l/m 4,9 km/h (1 Bft) O-NO 0,00 h 0,000 mm 0,0 UV-I 0 W/m 7,6 C 7,9 C 7,7 km/h (2 Bft) 97,31 %
20.10.2017 04:00 8,5 C 11,7 C 98 % 1014,5 hPa 0,0 l/m 4,0 km/h (1 Bft) O-NO 0,00 h 0,000 mm 0,0 UV-I 0 W/m 8,2 C 8,3 C 7,3 km/h (2 Bft) 99,10 %
20.10.2017 05:00 8,7 C 11,7 C 98 % 1014,7 hPa 0,0 l/m 1,8 km/h (1 Bft) O-NO 0,00 h 0,000 mm 0,0 UV-I 0 W/m 8,4 C 8,7 C 3,8 km/h (1 Bft) 98,27 %
20.10.2017 06:00 8,9 C 11,7 C 98 % 1014,9 hPa 0,0 l/m 1,7 km/h (1 Bft) O-NO 0,00 h 0,000 mm 0,0 UV-I 0 W/m 8,6 C 8,9 C 3,4 km/h (1 Bft) 96,62 %
20.10.2017 07:00 8,8 C 11,7 C 98 % 1015,3 hPa 0,0 l/m 0,9 km/h (0 Bft) O 0,00 h 0,000 mm 0,0 UV-I 8 W/m 8,5 C 8,8 C 2,3 km/h (1 Bft) 97,99 %
20.10.2017 08:00 8,8 C 11,7 C 98 % 1015,7 hPa 0,0 l/m 3,4 km/h (1 Bft) O-NO 0,00 h 0,000 mm 0,0 UV-I 28 W/m 8,5 C 8,8 C 5,7 km/h (1 Bft) 98,94 %
20.10.2017 09:00 8,9 C 11,7 C 98 % 1016,3 hPa 0,0 l/m 2,3 km/h (1 Bft) O-NO 0,00 h 0,025 mm 0,0 UV-I 62 W/m 8,6 C 8,9 C 4,5 km/h (1 Bft) 97,59 %
20.10.2017 10:00 9,1 C 11,7 C 99 % 1016,8 hPa 0,0 l/m 3,0 km/h (1 Bft) O-NO 0,00 h 0,026 mm 0,5 UV-I 101 W/m 8,8 C 9,1 C 5,0 km/h (1 Bft) 97,54 %
20.10.2017 11:00 9,3 C 11,7 C 99 % 1016,8 hPa 0,0 l/m 3,0 km/h (1 Bft) O-NO 0,00 h 0,051 mm 0,6 UV-I 143 W/m 9,1 C 9,3 C 5,7 km/h (1 Bft) 98,39 %
20.10.2017 12:00 9,8 C 11,7 C 98 % 1017,0 hPa 0,0 l/m 2,6 km/h (1 Bft) O-SO 0,20 h 0,076 mm 1,0 UV-I 255 W/m 9,4 C 9,7 C 5,5 km/h (1 Bft) 98,90 %
20.10.2017 13:00 11,0 C 11,7 C 94 % 1016,9 hPa 0,2 l/m 2,7 km/h (1 Bft) NO 0,53 h 0,127 mm 1,5 UV-I 351 W/m 10,0 C 11,0 C 4,9 km/h (1 Bft) 98,35 %
20.10.2017 14:00 12,7 C 11,7 C 89 % 1016,5 hPa 0,0 l/m 2,7 km/h (1 Bft) O-NO 0,87 h 0,178 mm 1,3 UV-I 383 W/m 10,9 C 12,7 C 4,9 km/h (1 Bft) 97,02 %
20.10.2017 15:00 13,9 C 11,7 C 86 % 1016,4 hPa 0,0 l/m 3,1 km/h (1 Bft) NO 1,00 h 0,177 mm 0,8 UV-I 321 W/m 11,7 C 13,9 C 5,4 km/h (1 Bft) 96,14 %
20.10.2017 16:00 13,7 C 11,7 C 88 % 1016,2 hPa 0,0 l/m 1,8 km/h (1 Bft) N-NO 0,93 h 0,153 mm 0,4 UV-I 179 W/m 11,7 C 13,7 C 3,9 km/h (1 Bft) 97,65 %
20.10.2017 17:00 12,9 C 11,7 C 89 % 1016,5 hPa 0,0 l/m 0,0 km/h (0 Bft) N 0,93 h 0,101 mm 0,0 UV-I 53 W/m 11,1 C 12,9 C 0,0 km/h (0 Bft) 99,28 %
20.10.2017 18:00 11,1 C 11,7 C 92 % 1016,7 hPa 0,0 l/m 0,0 km/h (0 Bft) N 0,00 h 0,026 mm 0,0 UV-I 6 W/m 9,9 C 11,1 C 0,0 km/h (0 Bft) 97,85 %
20.10.2017 19:00 9,4 C 11,7 C 95 % 1017,0 hPa 0,0 l/m 0,0 km/h (0 Bft) N 0,00 h 0,000 mm 0,0 UV-I 0 W/m 8,7 C 9,4 C 0,0 km/h (0 Bft) 97,28 %
20.10.2017 20:00 8,8 C 11,7 C 97 % 1016,9 hPa 0,0 l/m 0,0 km/h (0 Bft) N 0,00 h 0,000 mm 0,0 UV-I 0 W/m 8,3 C 8,8 C 0,0 km/h (0 Bft) 98,69 %
20.10.2017 21:00 8,0 C 11,7 C 97 % 1017,1 hPa 0,0 l/m 0,0 km/h (0 Bft) N 0,00 h 0,000 mm 0,0 UV-I 0 W/m 7,6 C 8,0 C 0,0 km/h (0 Bft) 98,74 %
20.10.2017 22:00 7,3 C 11,7 C 97 % 1017,4 hPa 0,0 l/m 0,0 km/h (0 Bft) N 0,00 h 0,000 mm 0,0 UV-I 0 W/m 6,9 C 7,3 C 0,0 km/h (0 Bft) 98,66 %
20.10.2017 23:00 7,0 C 11,7 C 97 % 1017,4 hPa 0,0 l/m 0,0 km/h (0 Bft) N 0,00 h 0,000 mm 0,0 UV-I 0 W/m 6,6 C 7,0 C 0,0 km/h (0 Bft) 96,53 %
21.10.2017 00:00 7,4 C 11,7 C 98 % 1017,8 hPa 0,0 l/m 2,3 km/h (1 Bft) SW 0,00 h 0,000 mm 0,0 UV-I 0 W/m 7,1 C 7,4 C 4,0 km/h (1 Bft) 99,35 %
21.10.2017 01:00 7,6 C 11,7 C 98 % 1017,9 hPa 0,0 l/m 1,0 km/h (0 Bft) S 0,00 h 0,000 mm 0,0 UV-I 0 W/m 7,3 C 7,6 C 2,2 km/h (1 Bft) 97,87 %
21.10.2017 02:00 7,1 C 11,7 C 98 % 1017,7 hPa 0,0 l/m 0,6 km/h (0 Bft) S 0,00 h 0,000 mm 0,0 UV-I 0 W/m 6,8 C 7,1 C 1,4 km/h (1 Bft) 97,52 %
21.10.2017 03:00 7,3 C 11,7 C 98 % 1017,7 hPa 0,0 l/m 1,3 km/h (1 Bft) S-SW 0,00 h 0,000 mm 0,0 UV-I 0 W/m 7,0 C 7,3 C 2,4 km/h (1 Bft) 97,92 %
21.10.2017 04:00 7,3 C 11,7 C 98 % 1017,6 hPa 0,0 l/m 1,6 km/h (1 Bft) SO 0,00 h 0,000 mm 0,0 UV-I 0 W/m 7,0 C 7,3 C 3,2 km/h (1 Bft) 99,74 %
21.10.2017 05:00 7,7 C 11,7 C 98 % 1017,6 hPa 0,0 l/m 0,4 km/h (0 Bft) SO 0,00 h 0,000 mm 0,0 UV-I 0 W/m 7,4 C 7,7 C 1,4 km/h (1 Bft) 96,06 %
21.10.2017 06:00 8,0 C 11,7 C 98 % 1017,5 hPa 0,0 l/m 0,8 km/h (0 Bft) SO 0,00 h 0,000 mm 0,0 UV-I 0 W/m 7,7 C 8,0 C 2,1 km/h (1 Bft) 98,66 %
21.10.2017 07:00 8,0 C 11,7 C 98 % 1017,4 hPa 0,0 l/m 1,4 km/h (1 Bft) N-NO 0,00 h 0,000 mm 0,0 UV-I 7 W/m 7,7 C 8,0 C 2,8 km/h (1 Bft) 98,14 %
21.10.2017 08:00 8,2 C 11,7 C 98 % 1017,6 hPa 0,0 l/m 0,4 km/h (0 Bft) N 0,00 h 0,000 mm 0,0 UV-I 31 W/m 7,9 C 8,2 C 1,6 km/h (1 Bft) 98,53 %
21.10.2017 09:00 8,9 C 11,7 C 98 % 1017,9 hPa 0,0 l/m 2,0 km/h (1 Bft) W-SW 0,00 h 0,025 mm 0,0 UV-I 58 W/m 8,6 C 8,9 C 3,8 km/h (1 Bft) 96,59 %
21.10.2017 10:00 9,7 C 11,7 C 98 % 1018,5 hPa 0,2 l/m 2,7 km/h (1 Bft) SW 0,00 h 0,026 mm 0,0 UV-I 43 W/m 9,4 C 9,7 C 4,9 km/h (1 Bft) 99,29 %
21.10.2017 11:00 10,5 C 11,7 C 98 % 1018,6 hPa 0,0 l/m 1,1 km/h (0 Bft) S 0,00 h 0,025 mm 0,5 UV-I 85 W/m 10,2 C 10,5 C 3,1 km/h (1 Bft) 98,18 %
21.10.2017 12:00 11,3 C 11,7 C 97 % 1018,4 hPa 0,2 l/m 0,4 km/h (0 Bft) S 0,00 h 0,026 mm 0,0 UV-I 49 W/m 10,8 C 11,3 C 1,3 km/h (1 Bft) 98,28 %
21.10.2017 13:00 12,2 C 11,7 C 97 % 1017,7 hPa 0,0 l/m 2,4 km/h (1 Bft) S-SW 0,00 h 0,025 mm 0,5 UV-I 80 W/m 11,7 C 12,2 C 5,0 km/h (1 Bft) 97,07 %
21.10.2017 14:00 13,8 C 11,7 C 94 % 1017,2 hPa 0,0 l/m 1,3 km/h (1 Bft) N-NO 0,00 h 0,051 mm 0,6 UV-I 128 W/m 12,9 C 13,8 C 2,6 km/h (1 Bft) 99,24 %
21.10.2017 15:00 14,7 C 11,7 C 94 % 1016,7 hPa 0,2 l/m 4,0 km/h (1 Bft) NO 0,40 h 0,076 mm 0,6 UV-I 197 W/m 13,7 C 14,7 C 5,8 km/h (1 Bft) 97,80 %
21.10.2017 16:00 14,3 C 11,7 C 93 % 1016,5 hPa 0,0 l/m 4,1 km/h (1 Bft) NO 0,63 h 0,102 mm 0,3 UV-I 141 W/m 13,3 C 14,3 C 6,5 km/h (2 Bft) 99,57 %
21.10.2017 17:00 13,5 C 11,7 C 94 % 1016,4 hPa 0,0 l/m 3,4 km/h (1 Bft) O 0,57 h 0,076 mm 0,0 UV-I 47 W/m 12,6 C 13,5 C 5,4 km/h (1 Bft) 95,88 %
21.10.2017 18:00 12,5 C 11,7 C 96 % 1016,4 hPa 0,0 l/m 3,8 km/h (1 Bft) O-NO 0,00 h 0,025 mm 0,0 UV-I 5 W/m 11,9 C 12,4 C 6,1 km/h (2 Bft) 98,51 %
21.10.2017 19:00 12,2 C 11,7 C 97 % 1016,5 hPa 0,0 l/m 3,7 km/h (1 Bft) O-NO 0,00 h 0,000 mm 0,0 UV-I 0 W/m 11,8 C 12,2 C 6,1 km/h (2 Bft) 98,66 %
21.10.2017 20:00 11,7 C 11,7 C 97 % 1016,3 hPa 0,0 l/m 2,9 km/h (1 Bft) O-NO 0,00 h 0,000 mm 0,0 UV-I 0 W/m 11,3 C 11,7 C 4,9 km/h (1 Bft) 98,31 %
21.10.2017 21:00 11,7 C 11,7 C 97 % 1015,9 hPa 0,0 l/m 4,0 km/h (1 Bft) O-SO 0,00 h 0,000 mm 0,0 UV-I 0 W/m 11,3 C 11,7 C 6,6 km/h (2 Bft) 97,04 %
21.10.2017 22:00 11,2 C 11,7 C 97 % 1015,3 hPa 0,0 l/m 2,7 km/h (1 Bft) SO 0,00 h 0,000 mm 0,0 UV-I 0 W/m 10,8 C 11,1 C 5,8 km/h (1 Bft) 98,68 %
21.10.2017 23:00 10,1 C 11,7 C 97 % 1014,9 hPa 0,0 l/m 3,1 km/h (1 Bft) N-NO 0,00 h 0,000 mm 0,0 UV-I 0 W/m 9,7 C 10,0 C 5,1 km/h (1 Bft) 98,66 %
22.10.2017 00:00 9,9 C 11,7 C 98 % 1014,6 hPa 0,0 l/m 4,7 km/h (1 Bft) O-NO 0,00 h 0,000 mm 0,0 UV-I 0 W/m 9,6 C 9,9 C 6,8 km/h (2 Bft) 94,02 %
22.10.2017 01:00 9,9 C 11,7 C 98 % 1014,5 hPa 0,0 l/m 3,2 km/h (1 Bft) O-NO 0,00 h 0,000 mm 0,0 UV-I 0 W/m 9,6 C 9,9 C 5,1 km/h (1 Bft) 97,66 %
22.10.2017 02:00 9,7 C 11,7 C 98 % 1014,5 hPa 0,0 l/m 2,8 km/h (1 Bft) S-SW 0,00 h 0,000 mm 0,0 UV-I 0 W/m 9,4 C 9,6 C 4,8 km/h (1 Bft) 98,56 %
22.10.2017 03:00 10,3 C 11,7 C 98 % 1015,7 hPa 0,0 l/m 13,1 km/h (3 Bft) W-SW 0,00 h 0,000 mm 0,0 UV-I 0 W/m 10,0 C 6,5 C 19,6 km/h (3 Bft) 98,64 %
22.10.2017 04:00 11,0 C 11,7 C 97 % 1016,8 hPa 0,4 l/m 21,6 km/h (4 Bft) W-SW 0,00 h 0,000 mm 0,0 UV-I 0 W/m 10,5 C 4,1 C 33,2 km/h (5 Bft) 96,68 %
22.10.2017 05:00 10,7 C 11,7 C 91 % 1017,6 hPa 0,0 l/m 17,7 km/h (3 Bft) W-SW 0,00 h 0,000 mm 0,0 UV-I 0 W/m 9,2 C 5,0 C 26,1 km/h (4 Bft) 98,66 %
22.10.2017 06:00 10,3 C 11,7 C 89 % 1017,5 hPa 0,0 l/m 13,1 km/h (3 Bft) W-SW 0,00 h 0,025 mm 0,0 UV-I 0 W/m 8,5 C 6,4 C 18,9 km/h (3 Bft) 98,17 %
22.10.2017 07:00 9,9 C 11,6 C 91 % 1017,9 hPa 0,6 l/m 9,5 km/h (2 Bft) W-SW 0,00 h 0,026 mm 0,0 UV-I 5 W/m 8,5 C 7,8 C 15,3 km/h (3 Bft) 98,83 %
22.10.2017 08:00 9,4 C 11,2 C 94 % 1018,2 hPa 1,2 l/m 8,4 km/h (2 Bft) SW 0,00 h 0,000 mm 0,0 UV-I 17 W/m 8,5 C 8,0 C 13,4 km/h (3 Bft) 95,88 %
22.10.2017 09:00 9,5 C 11,1 C 94 % 1018,1 hPa 0,0 l/m 9,1 km/h (2 Bft) SW 0,00 h 0,025 mm 0,0 UV-I 69 W/m 8,6 C 7,6 C 13,8 km/h (3 Bft) 99,35 %
22.10.2017 10:00 9,8 C 11,1 C 93 % 1017,8 hPa 0,2 l/m 8,8 km/h (2 Bft) S-SW 0,00 h 0,026 mm 0,1 UV-I 81 W/m 8,6 C 8,1 C 13,8 km/h (3 Bft) 97,87 %
22.10.2017 11:00 10,1 C 11,1 C 90 % 1017,4 hPa 0,0 l/m 9,3 km/h (2 Bft) SW 0,00 h 0,050 mm 0,5 UV-I 121 W/m 8,6 C 8,2 C 14,8 km/h (3 Bft) 98,09 %
22.10.2017 12:00 10,8 C 11,3 C 87 % 1016,8 hPa 0,0 l/m 11,0 km/h (2 Bft) SW 0,00 h 0,077 mm 0,8 UV-I 177 W/m 8,7 C 8,1 C 17,5 km/h (3 Bft) 96,83 %
22.10.2017 13:00 11,1 C 11,7 C 84 % 1016,2 hPa 0,0 l/m 14,7 km/h (3 Bft) SW 0,00 h 0,101 mm 0,7 UV-I 157 W/m 8,6 C 6,7 C 22,6 km/h (4 Bft) 99,42 %
22.10.2017 14:00 11,5 C 11,7 C 81 % 1015,6 hPa 0,0 l/m 13,8 km/h (3 Bft) W-SW 0,00 h 0,102 mm 0,6 UV-I 134 W/m 8,4 C 7,5 C 21,3 km/h (4 Bft) 98,14 %
22.10.2017 15:00 11,5 C 11,7 C 77 % 1015,1 hPa 0,0 l/m 14,8 km/h (3 Bft) W-SW 0,00 h 0,101 mm 0,0 UV-I 129 W/m 7,6 C 7,1 C 22,3 km/h (4 Bft) 97,93 %
22.10.2017 16:00 11,3 C 11,7 C 76 % 1014,7 hPa 0,0 l/m 13,7 km/h (3 Bft) W-SW 0,00 h 0,102 mm 0,0 UV-I 74 W/m 7,3 C 7,3 C 20,8 km/h (4 Bft) 96,91 %
22.10.2017 17:00 10,6 C 11,7 C 77 % 1014,9 hPa 0,0 l/m 11,9 km/h (2 Bft) SW 0,00 h 0,076 mm 0,0 UV-I 14 W/m 6,8 C 7,3 C 18,6 km/h (3 Bft) 99,45 %
22.10.2017 18:00 10,0 C 11,7 C 77 % 1015,1 hPa 0,0 l/m 9,3 km/h (2 Bft) SW 0,00 h 0,026 mm 0,0 UV-I 4 W/m 6,2 C 8,1 C 14,4 km/h (3 Bft) 97,84 %
22.10.2017 19:00 9,3 C 11,2 C 80 % 1015,4 hPa 0,0 l/m 7,3 km/h (2 Bft) SW 0,00 h 0,025 mm 0,0 UV-I 0 W/m 6,0 C 8,6 C 11,2 km/h (2 Bft) 97,89 %
22.10.2017 20:00 9,1 C 11,1 C 80 % 1015,4 hPa 0,0 l/m 9,0 km/h (2 Bft) SW 0,00 h 0,025 mm 0,0 UV-I 0 W/m 5,9 C 7,3 C 13,7 km/h (3 Bft) 97,74 %
22.10.2017 21:00 8,9 C 11,1 C 81 % 1015,6 hPa 0,0 l/m 10,1 km/h (2 Bft) SW 0,00 h 0,026 mm 0,0 UV-I 0 W/m 5,7 C 6,4 C 14,9 km/h (3 Bft) 99,43 %
22.10.2017 22:00 8,8 C 11,1 C 80 % 1015,8 hPa 0,0 l/m 12,5 km/h (3 Bft) W-SW 0,00 h 0,025 mm 0,0 UV-I 0 W/m 5,6 C 5,0 C 18,8 km/h (3 Bft) 98,20 %
22.10.2017 23:00 8,5 C 11,1 C 81 % 1015,4 hPa 0,0 l/m 10,9 km/h (2 Bft) W-SW 0,00 h 0,026 mm 0,0 UV-I 0 W/m 5,4 C 5,4 C 17,2 km/h (3 Bft) 97,17 %
Min-Datum _ 17.10.17 22.10.17 16.10.17 18.10.17 - 16.10.17 - - - - - 22.10.17 22.10.17 16.10.17 22.10.17
_ Min-Zeit 06:26 07:46 15:30 16:54 - 00:56 - - - - - 23:14 04:32 00:58 00:02
Minimum _ 6,3 C 11,1 C 61 % 1013,7 hPa - 0,0 km/h (0 Bft) - - - - - 5,2 C 1,7 C 0,0 km/h (0 Bft) 10,53 %
Max-Datum _ 16.10.17 18.10.17 20.10.17 16.10.17 22.10.17 22.10.17 - 16.10.17 16.10.17 16.10.17 18.10.17 16.10.17 16.10.17 22.10.17 16.10.17
_ Max-Zeit 15:38 04:42 09:58 09:32 08:08 04:32 - 13:13 14:02 12:30 14:12 13:56 15:38 04:32 00:00
Maximum _ 21,0 C 12,2 C 99 % 1027,6 hPa 1,2 l/m 30,2 km/h
W-SW (5 Bft)
- 0,05 h 0,305 mm 2,5 UV-I 566 W/m 15,0 C 21,0 C 48,3 km/h
W-SW (6 Bft)
100,00 %
Durchschnitt _ 10,8 C 11,7 C 93 % 1018,5 hPa #4,6 l/m 3,0 km/h (1 Bft) O-NO #34:24 h #8,053 mm 1,1 UV-I 175 W/m 9,5 C 10,4 C 5,1 km/h (1 Bft) 98,09 %